Fairdealing, MO (63939)

2:51 PM CST on December 28, 2014 (GMT -0600)
RAWS DONIPHAN MO US | Change Station
CLOSE
Current Station
Personal Weather Station
Location: Doniphan, MO
Elevation: 634 ft
Nearby Weather Stations

Elev 634 ft 36.63 °N, 90.82 °W | Updated 58 minutes ago

Overcast
Overcast
35 °F
Feels Like 31 °F
N
5
Wind Variable Wind from NE
Gusts 10.0 mph

Today
High -- | Low -- °F
--% Chance of Precip.
Yesterday
High -- | Low -- °F
Precip. -- in
7:14 AM 4:54 PM
Waxing Crescent, 51% visible
Pressure 30.21 in
Visibility 9.0 miles
Clouds Overcast 1700 ft
Windchill 31 °F
Dew Point 28 °F
Humidity 76%
Rainfall 0.22 in
Snow Depth Not available.
UV 0 out of 12
Pollen .50 out of 12
Air Quality Not available.
Flu Activity Not available.
METAR K4M9 282035Z AUTO 03005KT 9SM OVC017 02/M01 A3021 RMK AO2

More Conditions Fewer Conditions

Pressure 30.21 in
Visibility 9.0 miles
Clouds Overcast 1700 ft
Windchill 31 °F
Dew Point 28 °F
Humidity 76%
Rainfall 0.22 in
Snow Depth Not available.
UV 0 out of 12
Pollen .50 out of 12
Air Quality Not available.
Flu Activity Not available.
METAR K4M9 282035Z AUTO 03005KT 9SM OVC017 02/M01 A3021 RMK AO2

More Conditions Fewer Conditions

10-Day Weather Forecast

Almanac

Astronomy

Dec. 28, 2014 Rise Set
Actual Time
Civil Twilight
Nautical Twilight
Astronomical Twilight
Moon
Length of Visible Light
Length of Day
Tomorrow will be .
, % of the Moon is Illuminated

Today's Extremes

State Highs State Lows

Community

WunderPhotos

Upload Photos

1,781,414 photos uploaded!

WunderBlogs® & News

Nearby

Air Quality

  Air Quality AQ Index Pollutant
Not available.

Snow Depth

Station Depth Elevation

Earthquake Activity

City Distance Mag. Time & Date
Minimum magnitude displayed is 2.5.

Coastal Water Temperatures

Place Temperature

Nearby Weather Stations